Sharps Island — WDB2219 — position and weather

sailwx.info

Track history (hours):
 
Tides and Currents Weather Stations Pressure Air Temp Water Temp Dewpoint Dewpoint Depression Visibility Wind Speed Wind Dir Waves Ship Positions

Sharps Island

Owner: Langenfelder Marine Inc., Stevensville, MD. More information available from US FCC via Universal Licensing System and Coast Guard Vessel Documentation Center.

Last reported at 2015-Apr-22 12:09 UTC. Time now 2015-Apr-28 00:28 UTC.
Position N 39°02' W 076°18'.

Length 25 m.

Type: Tug. MMSI: 338126265.

Date/timePositionNaut miles runAvg speedWind from/ knotsBaromVisibWave heightAir tempDewpointWater temp
2015-Apr-22 12:09N 39°02' W 076°18'0 0.0
2015-Apr-22 11:33N 39°02' W 076°18'2 0.5
2015-Apr-22 08:06N 39°04' W 076°18'4 7.6
2015-Apr-22 07:32N 39°00' W 076°22'23 0.9
2015-Apr-21 05:27N 39°22' W 076°09'7 8.0
2015-Apr-21 04:33N 39°25' W 076°01'8 7.0
2015-Apr-21 03:28N 39°31' W 075°54'5 5.3
2015-Apr-21 02:33N 39°32' W 075°48'5 5.4
2015-Apr-21 01:34N 39°33' W 075°41'5 5.1
2015-Apr-21 00:33N 39°34' W 075°35'4 4.0
2015-Apr-20 23:33N 39°30' W 075°33'5 4.9
2015-Apr-20 22:33N 39°25' W 075°31'5 5.5
2015-Apr-20 21:33N 39°21' W 075°26'5 5.1
2015-Apr-20 20:33N 39°17' W 075°22'5 5.5
2015-Apr-20 19:33N 39°13' W 075°17'6 5.6
2015-Apr-20 18:33N 39°08' W 075°14'10 2.0
2015-Apr-20 13:17N 39°14' W 075°02'12 0.7
2015-Apr-19 19:30N 39°13' W 075°17'8 8.5
2015-Apr-19 18:33N 39°19' W 075°24'8 7.6
2015-Apr-19 17:33N 39°25' W 075°30'6 6.0
2015-Apr-19 16:33N 39°30' W 075°33'4 3.9
2015-Apr-19 15:32N 39°33' W 075°36'7 7.6
2015-Apr-19 14:34N 39°32' W 075°46'8 8.1
2015-Apr-19 13:33N 39°30' W 075°56'8 8.5
2015-Apr-19 12:33N 39°24' W 076°04'25 2.6
2015-Apr-19 03:15N 39°02' W 076°18'1 0.1
2015-Apr-18 08:32N 39°03' W 076°19'1 1.0
2015-Apr-18 07:09N 39°02' W 076°18'0 0.0
2015-Apr-18 06:33N 39°02' W 076°18'0 0.0
2015-Apr-18 05:27N 39°02' W 076°18'28 0.6
2015-Apr-16 07:33N 39°26' W 076°00'7 6.9
2015-Apr-16 06:33N 39°31' W 075°54'7 7.1
2015-Apr-16 05:33N 39°32' W 075°45'8 7.7
2015-Apr-16 04:33N 39°33' W 075°35'5 4.7
2015-Apr-16 03:33N 39°29' W 075°34'6 6.4
2015-Apr-16 02:33N 39°24' W 075°29'7 7.1
2015-Apr-16 01:33N 39°18' W 075°23'7 7.4
2015-Apr-16 00:33N 39°13' W 075°17'8 7.1
2015-Apr-15 23:23N 39°07' W 075°09'9 0.7
2015-Apr-15 11:27N 39°14' W 075°02'0 0.0
2015-Apr-15 10:33N 39°14' W 075°02'0 0.0
2015-Apr-15 09:33N 39°14' W 075°02'0 0.0
2015-Apr-15 08:33N 39°14' W 075°02'0 0.0
2015-Apr-15 07:21N 39°14' W 075°02'0 0.0
2015-Apr-15 06:27N 39°14' W 075°02'0 0.0
2015-Apr-15 05:30N 39°14' W 075°02'0 0.0
2015-Apr-15 04:33N 39°14' W 075°02'0 0.0
2015-Apr-15 03:18N 39°14' W 075°02'0 0.0
2015-Apr-15 02:21N 39°14' W 075°02'0 0.0
2015-Apr-15 01:30N 39°14' W 075°02'0 0.0
2015-Apr-15 00:33N 39°14' W 075°02'0 0.0
2015-Apr-14 23:33N 39°14' W 075°02'0 0.0
2015-Apr-14 22:24N 39°14' W 075°02'0 0.0
2015-Apr-14 21:30N 39°14' W 075°02'2 1.2
2015-Apr-14 19:24N 39°11' W 075°02'4 2.7
2015-Apr-14 18:03N 39°08' W 075°03'1 0.2
2015-Apr-14 14:31N 39°08' W 075°03'10 4.9
2015-Apr-14 12:34N 39°12' W 075°15'8 7.6
2015-Apr-14 11:33N 39°17' W 075°22'6 6.1
2015-Apr-14 10:33N 39°22' W 075°27'6 5.5
2015-Apr-14 09:33N 39°26' W 075°32'5 5.3
2015-Apr-14 08:33N 39°31' W 075°33'6 6.1
2015-Apr-14 07:33N 39°33' W 075°40'9 9.4
2015-Apr-14 06:33N 39°31' W 075°52'8 8.4
2015-Apr-14 05:33N 39°26' W 076°01'7 7.1
2015-Apr-14 04:33N 39°22' W 076°08'8 6.6
2015-Apr-14 03:24N 39°16' W 076°14'8 6.6
2015-Apr-14 02:15N 39°09' W 076°19'5 6.6
2015-Apr-14 01:33N 39°05' W 076°21'  
Track history (hours):
 
Tides and Currents Weather Stations Pressure Air Temp Water Temp Dewpoint Dewpoint Depression Visibility Wind Speed Wind Dir Waves Ship Positions

Sharps Island

Owner: Langenfelder Marine Inc., Stevensville, MD. More information available from US FCC via Universal Licensing System and Coast Guard Vessel Documentation Center.

Last reported at 2015-Apr-22 12:09 UTC. Time now 2015-Apr-28 00:28 UTC.
Position N 39°02' W 076°18'.

Length 25 m.

Type: Tug. MMSI: 338126265.

Date/timePositionNaut miles runAvg speedWind from/ knotsBaromVisibWave heightAir tempDewpointWater temp
2015-Apr-22 12:09N 39°02' W 076°18'0 0.0
2015-Apr-22 11:33N 39°02' W 076°18'2 0.5
2015-Apr-22 08:06N 39°04' W 076°18'4 7.6
2015-Apr-22 07:32N 39°00' W 076°22'23 0.9
2015-Apr-21 05:27N 39°22' W 076°09'7 8.0
2015-Apr-21 04:33N 39°25' W 076°01'8 7.0
2015-Apr-21 03:28N 39°31' W 075°54'5 5.3
2015-Apr-21 02:33N 39°32' W 075°48'5 5.4
2015-Apr-21 01:34N 39°33' W 075°41'5 5.1
2015-Apr-21 00:33N 39°34' W 075°35'4 4.0
2015-Apr-20 23:33N 39°30' W 075°33'5 4.9
2015-Apr-20 22:33N 39°25' W 075°31'5 5.5
2015-Apr-20 21:33N 39°21' W 075°26'5 5.1
2015-Apr-20 20:33N 39°17' W 075°22'5 5.5
2015-Apr-20 19:33N 39°13' W 075°17'6 5.6
2015-Apr-20 18:33N 39°08' W 075°14'10 2.0
2015-Apr-20 13:17N 39°14' W 075°02'12 0.7
2015-Apr-19 19:30N 39°13' W 075°17'8 8.5
2015-Apr-19 18:33N 39°19' W 075°24'8 7.6
2015-Apr-19 17:33N 39°25' W 075°30'6 6.0
2015-Apr-19 16:33N 39°30' W 075°33'4 3.9
2015-Apr-19 15:32N 39°33' W 075°36'7 7.6
2015-Apr-19 14:34N 39°32' W 075°46'8 8.1
2015-Apr-19 13:33N 39°30' W 075°56'8 8.5
2015-Apr-19 12:33N 39°24' W 076°04'25 2.6
2015-Apr-19 03:15N 39°02' W 076°18'1 0.1
2015-Apr-18 08:32N 39°03' W 076°19'1 1.0
2015-Apr-18 07:09N 39°02' W 076°18'0 0.0
2015-Apr-18 06:33N 39°02' W 076°18'0 0.0
2015-Apr-18 05:27N 39°02' W 076°18'28 0.6
2015-Apr-16 07:33N 39°26' W 076°00'7 6.9
2015-Apr-16 06:33N 39°31' W 075°54'7 7.1
2015-Apr-16 05:33N 39°32' W 075°45'8 7.7
2015-Apr-16 04:33N 39°33' W 075°35'5 4.7
2015-Apr-16 03:33N 39°29' W 075°34'6 6.4
2015-Apr-16 02:33N 39°24' W 075°29'7 7.1
2015-Apr-16 01:33N 39°18' W 075°23'7 7.4
2015-Apr-16 00:33N 39°13' W 075°17'8 7.1
2015-Apr-15 23:23N 39°07' W 075°09'9 0.7
2015-Apr-15 11:27N 39°14' W 075°02'0 0.0
2015-Apr-15 10:33N 39°14' W 075°02'0 0.0
2015-Apr-15 09:33N 39°14' W 075°02'0 0.0
2015-Apr-15 08:33N 39°14' W 075°02'0 0.0
2015-Apr-15 07:21N 39°14' W 075°02'0 0.0
2015-Apr-15 06:27N 39°14' W 075°02'0 0.0
2015-Apr-15 05:30N 39°14' W 075°02'0 0.0
2015-Apr-15 04:33N 39°14' W 075°02'0 0.0
2015-Apr-15 03:18N 39°14' W 075°02'0 0.0
2015-Apr-15 02:21N 39°14' W 075°02'0 0.0
2015-Apr-15 01:30N 39°14' W 075°02'0 0.0
2015-Apr-15 00:33N 39°14' W 075°02'0 0.0
2015-Apr-14 23:33N 39°14' W 075°02'0 0.0
2015-Apr-14 22:24N 39°14' W 075°02'0 0.0
2015-Apr-14 21:30N 39°14' W 075°02'2 1.2
2015-Apr-14 19:24N 39°11' W 075°02'4 2.7
2015-Apr-14 18:03N 39°08' W 075°03'1 0.2
2015-Apr-14 14:31N 39°08' W 075°03'10 4.9
2015-Apr-14 12:34N 39°12' W 075°15'8 7.6
2015-Apr-14 11:33N 39°17' W 075°22'6 6.1
2015-Apr-14 10:33N 39°22' W 075°27'6 5.5
2015-Apr-14 09:33N 39°26' W 075°32'5 5.3
2015-Apr-14 08:33N 39°31' W 075°33'6 6.1
2015-Apr-14 07:33N 39°33' W 075°40'9 9.4
2015-Apr-14 06:33N 39°31' W 075°52'8 8.4
2015-Apr-14 05:33N 39°26' W 076°01'7 7.1
2015-Apr-14 04:33N 39°22' W 076°08'8 6.6
2015-Apr-14 03:24N 39°16' W 076°14'8 6.6
2015-Apr-14 02:15N 39°09' W 076°19'5 6.6
2015-Apr-14 01:33N 39°05' W 076°21'  

Dump ship's entire track history